Dothan, AL

1:50 PM CDT on July 07, 2015 (GMT -0500)
Carver Magnet School WeatherSTEM | | Change Station
CLOSE
Current Station
Personal Weather Station
Location: Dothan, AL
Elevation: 351 ft
Nearby Weather Stations

Elev 351 ft 31.24 °N, 85.38 °W | Updated 7 minutes ago

Partly Cloudy
Partly Cloudy
88.0 °F
Feels Like 98 °F
N
1.0
Wind Variable Wind from South
Gusts 5.0 mph

Today
High -- | Low -- °F
--% Chance of Precip.
Yesterday
High -- | Low -- °F
Precip. -- in
5:43 AM 7:49 PM
Waning Gibbous, 62% visible
Pressure 30.18 in
Visibility 10.0 miles
Clouds Few 3700 ft
Scattered Clouds 4800 ft
Scattered Clouds 6000 ft
Heat Index 98 °F
Dew Point 75 °F
Humidity 66%
Rainfall 0.00 in
Snow Depth Not available.
UV 6.8 out of 12
Pollen 2.80 out of 12
Air Quality Not available.
Flu Activity Not available.
METAR KDHN 071753Z 22004KT 10SM FEW037 SCT048 SCT060 32/22 A3019 RMK AO2 SLP218 T03170222 10322 20244 58009

More Conditions Fewer Conditions

Pressure 30.18 in
Visibility 10.0 miles
Clouds Few 3700 ft
Scattered Clouds 4800 ft
Scattered Clouds 6000 ft
Heat Index 98 °F
Dew Point 75 °F
Humidity 66%
Rainfall 0.00 in
Snow Depth Not available.
UV 6.8 out of 12
Pollen 2.80 out of 12
Air Quality Not available.
Flu Activity Not available.
METAR KDHN 071753Z 22004KT 10SM FEW037 SCT048 SCT060 32/22 A3019 RMK AO2 SLP218 T03170222 10322 20244 58009

More Conditions Fewer Conditions

10-Day Weather Forecast

×

Almanac

Astronomy

Jul. 07, 2015 Rise Set
Actual Time
Civil Twilight
Nautical Twilight
Astronomical Twilight
Moon
Length of Visible Light
Length of Day
Tomorrow will be .
, % of the Moon is Illuminated

Today's Extremes

State Highs State Lows

Community

WunderPhotos

Upload Photos

1,835,868 photos uploaded!

WunderBlogs® & News

Nearby

Air Quality

  Air Quality AQ Index Pollutant
Not available.

Snow Depth

Station Depth Elevation

Earthquake Activity

City Distance Mag. Time & Date
Minimum magnitude displayed is 2.5.

Coastal Water Temperatures

Place Temperature

Stations

Nearby Weather Stations

Station Location Temp. Windchill Dew Point Humidity Wind Precip. Elev Updated Type